sensor_id;sensor_type;location;lat;lon;timestamp;pressure;altitude;pressure_sealevel;temperature;humidity
1726;BME280;41776;48.260;8.928;2024-03-02T00:00:36;52309.72;;;-145.69;66.69
1726;BME280;41776;48.260;8.928;2024-03-02T00:03:06;52321.59;;;-145.69;66.39
1726;BME280;41776;48.260;8.928;2024-03-02T00:05:35;52311.69;;;-145.69;65.69
1726;BME280;41776;48.260;8.928;2024-03-02T00:08:04;52335.47;;;-145.69;65.81
1726;BME280;41776;48.260;8.928;2024-03-02T00:10:36;52337.44;;;-145.69;65.73
1726;BME280;41776;48.260;8.928;2024-03-02T00:13:05;52373.09;;;-145.69;66.12
1726;BME280;41776;48.260;8.928;2024-03-02T00:15:41;52343.38;;;-145.69;66.38
1726;BME280;41776;48.260;8.928;2024-03-02T00:18:11;52343.38;;;-145.69;66.53
1726;BME280;41776;48.260;8.928;2024-03-02T00:20:37;52341.41;;;-145.69;66.85
1726;BME280;41776;48.260;8.928;2024-03-02T00:23:05;52329.53;;;-145.69;67.08
1726;BME280;41776;48.260;8.928;2024-03-02T00:25:39;52337.44;;;-145.69;67.49
1726;BME280;41776;48.260;8.928;2024-03-02T00:30:50;52341.41;;;-145.69;67.39
1726;BME280;41776;48.260;8.928;2024-03-02T00:33:19;52341.41;;;-145.69;67.24
1726;BME280;41776;48.260;8.928;2024-03-02T00:35:46;52359.22;;;-145.69;67.15
1726;BME280;41776;48.260;8.928;2024-03-02T00:38:12;52369.13;;;-145.69;67.55
1726;BME280;41776;48.260;8.928;2024-03-02T00:40:40;52381.00;;;-145.69;67.20
1726;BME280;41776;48.260;8.928;2024-03-02T00:45:55;52353.28;;;-145.69;67.72
1726;BME280;41776;48.260;8.928;2024-03-02T00:48:23;52349.31;;;-145.69;68.17
1726;BME280;41776;48.260;8.928;2024-03-02T00:50:50;52327.53;;;-145.69;68.12
1726;BME280;41776;48.260;8.928;2024-03-02T00:53:21;52329.53;;;-145.69;68.47
1726;BME280;41776;48.260;8.928;2024-03-02T00:55:50;52317.66;;;-145.69;68.44
1726;BME280;41776;48.260;8.928;2024-03-02T00:58:16;52353.28;;;-145.69;68.20
1726;BME280;41776;48.260;8.928;2024-03-02T01:00:43;52373.09;;;-145.69;68.77
1726;BME280;41776;48.260;8.928;2024-03-02T01:03:09;52325.56;;;-145.69;69.05
1726;BME280;41776;48.260;8.928;2024-03-02T01:05:41;52351.31;;;-145.69;68.15
1726;BME280;41776;48.260;8.928;2024-03-02T01:08:07;52347.34;;;-145.69;68.68
1726;BME280;41776;48.260;8.928;2024-03-02T01:10:33;52394.88;;;-145.69;68.25
1726;BME280;41776;48.260;8.928;2024-03-02T01:13:00;52367.16;;;-145.69;68.63
1726;BME280;41776;48.260;8.928;2024-03-02T01:15:26;52343.38;;;-145.69;68.64
1726;BME280;41776;48.260;8.928;2024-03-02T01:17:53;52353.28;;;-145.69;68.79
1726;BME280;41776;48.260;8.928;2024-03-02T01:20:19;52367.16;;;-145.69;68.61
1726;BME280;41776;48.260;8.928;2024-03-02T01:22:48;52361.22;;;-145.69;68.79
1726;BME280;41776;48.260;8.928;2024-03-02T01:25:14;52341.41;;;-145.69;68.89
1726;BME280;41776;48.260;8.928;2024-03-02T01:27:41;52339.44;;;-145.69;68.67
1726;BME280;41776;48.260;8.928;2024-03-02T01:30:08;52349.31;;;-145.69;68.79
1726;BME280;41776;48.260;8.928;2024-03-02T01:32:37;52349.31;;;-145.69;68.07
1726;BME280;41776;48.260;8.928;2024-03-02T01:35:04;52333.47;;;-145.69;67.38
1726;BME280;41776;48.260;8.928;2024-03-02T01:37:32;52369.13;;;-145.69;67.28
1726;BME280;41776;48.260;8.928;2024-03-02T01:40:00;52317.66;;;-145.69;68.00
1726;BME280;41776;48.260;8.928;2024-03-02T01:42:26;52349.31;;;-145.69;67.79
1726;BME280;41776;48.260;8.928;2024-03-02T01:44:52;52329.53;;;-145.69;67.95
1726;BME280;41776;48.260;8.928;2024-03-02T01:47:19;52353.28;;;-145.69;67.73
1726;BME280;41776;48.260;8.928;2024-03-02T01:49:45;52373.09;;;-145.69;67.38
1726;BME280;41776;48.260;8.928;2024-03-02T01:52:12;52363.19;;;-145.69;66.91
1726;BME280;41776;48.260;8.928;2024-03-02T01:54:38;52355.28;;;-145.69;66.60
1726;BME280;41776;48.260;8.928;2024-03-02T01:57:06;52365.16;;;-145.69;67.20
1726;BME280;41776;48.260;8.928;2024-03-02T01:59:33;52343.38;;;-145.69;66.89
1726;BME280;41776;48.260;8.928;2024-03-02T02:01:59;52355.28;;;-145.69;66.57
1726;BME280;41776;48.260;8.928;2024-03-02T02:04:26;52351.31;;;-145.69;67.10
1726;BME280;41776;48.260;8.928;2024-03-02T02:06:53;52341.41;;;-145.69;67.89
1726;BME280;41776;48.260;8.928;2024-03-02T02:09:20;52369.13;;;-145.69;67.66
1726;BME280;41776;48.260;8.928;2024-03-02T02:11:46;52357.25;;;-145.69;67.58
1726;BME280;41776;48.260;8.928;2024-03-02T02:14:14;52363.19;;;-145.69;68.67
1726;BME280;41776;48.260;8.928;2024-03-02T02:16:40;52377.06;;;-145.69;68.15
1726;BME280;41776;48.260;8.928;2024-03-02T02:19:07;52369.13;;;-145.69;68.20
1726;BME280;41776;48.260;8.928;2024-03-02T02:21:35;52329.53;;;-145.69;67.95
1726;BME280;41776;48.260;8.928;2024-03-02T02:24:02;52353.28;;;-145.69;68.58
1726;BME280;41776;48.260;8.928;2024-03-02T02:26:29;52359.22;;;-145.69;68.73
1726;BME280;41776;48.260;8.928;2024-03-02T02:28:55;52379.03;;;-145.69;68.80
1726;BME280;41776;48.260;8.928;2024-03-02T02:31:22;52375.06;;;-145.69;69.17
1726;BME280;41776;48.260;8.928;2024-03-02T02:33:48;52384.97;;;-145.69;69.06
1726;BME280;41776;48.260;8.928;2024-03-02T02:36:15;52367.16;;;-145.69;68.22
1726;BME280;41776;48.260;8.928;2024-03-02T02:38:44;52369.13;;;-145.69;70.50
1726;BME280;41776;48.260;8.928;2024-03-02T02:41:12;52383.00;;;-145.69;70.60
1726;BME280;41776;48.260;8.928;2024-03-02T02:43:39;52379.03;;;-145.69;70.43
1726;BME280;41776;48.260;8.928;2024-03-02T02:46:05;52367.16;;;-145.69;70.12
1726;BME280;41776;48.260;8.928;2024-03-02T02:48:31;52331.50;;;-145.69;69.46
1726;BME280;41776;48.260;8.928;2024-03-02T02:50:57;52373.09;;;-145.69;69.04
1726;BME280;41776;48.260;8.928;2024-03-02T02:53:24;52388.94;;;-145.69;69.73
1726;BME280;41776;48.260;8.928;2024-03-02T02:55:51;52353.28;;;-145.69;70.63
1726;BME280;41776;48.260;8.928;2024-03-02T02:58:18;52341.41;;;-145.69;69.81
1726;BME280;41776;48.260;8.928;2024-03-02T03:00:44;52369.13;;;-145.69;69.69
1726;BME280;41776;48.260;8.928;2024-03-02T03:03:11;52353.28;;;-145.69;70.22
1726;BME280;41776;48.260;8.928;2024-03-02T03:05:37;52377.06;;;-145.69;70.27
1726;BME280;41776;48.260;8.928;2024-03-02T03:08:04;52384.97;;;-145.69;69.43
1726;BME280;41776;48.260;8.928;2024-03-02T03:10:30;52383.00;;;-145.69;69.79
1726;BME280;41776;48.260;8.928;2024-03-02T03:12:59;52377.06;;;-145.69;69.75
1726;BME280;41776;48.260;8.928;2024-03-02T03:15:26;52384.97;;;-145.69;69.74
1726;BME280;41776;48.260;8.928;2024-03-02T03:17:52;52381.00;;;-145.69;70.74
1726;BME280;41776;48.260;8.928;2024-03-02T03:20:18;52388.94;;;-145.69;70.37
1726;BME280;41776;48.260;8.928;2024-03-02T03:22:46;52343.38;;;-145.69;70.21
1726;BME280;41776;48.260;8.928;2024-03-02T03:25:13;52371.13;;;-145.69;70.13
1726;BME280;41776;48.260;8.928;2024-03-02T03:27:39;52327.53;;;-145.69;70.01
1726;BME280;41776;48.260;8.928;2024-03-02T03:30:09;52383.00;;;-145.69;70.23
1726;BME280;41776;48.260;8.928;2024-03-02T03:32:35;52379.03;;;-145.69;70.66
1726;BME280;41776;48.260;8.928;2024-03-02T03:35:02;52390.91;;;-145.69;70.97
1726;BME280;41776;48.260;8.928;2024-03-02T03:37:29;52363.19;;;-145.69;70.50
1726;BME280;41776;48.260;8.928;2024-03-02T03:39:58;52349.31;;;-145.69;71.00
1726;BME280;41776;48.260;8.928;2024-03-02T03:42:24;52333.47;;;-145.69;71.01
1726;BME280;41776;48.260;8.928;2024-03-02T03:44:51;52410.72;;;-145.69;70.18
1726;BME280;41776;48.260;8.928;2024-03-02T03:47:19;52396.84;;;-145.69;70.39
1726;BME280;41776;48.260;8.928;2024-03-02T03:49:45;52392.91;;;-145.69;69.92
1726;BME280;41776;48.260;8.928;2024-03-02T03:52:12;52379.03;;;-145.69;69.96
1726;BME280;41776;48.260;8.928;2024-03-02T03:54:38;52369.13;;;-145.69;69.69
1726;BME280;41776;48.260;8.928;2024-03-02T03:57:05;52359.22;;;-145.69;70.12
1726;BME280;41776;48.260;8.928;2024-03-02T03:59:31;52400.81;;;-145.69;70.31
1726;BME280;41776;48.260;8.928;2024-03-02T04:01:59;52388.94;;;-145.69;70.02
1726;BME280;41776;48.260;8.928;2024-03-02T04:04:27;52345.38;;;-145.69;70.36
1726;BME280;41776;48.260;8.928;2024-03-02T04:06:53;52367.16;;;-145.69;71.00
1726;BME280;41776;48.260;8.928;2024-03-02T04:09:20;52384.97;;;-145.69;70.30
1726;BME280;41776;48.260;8.928;2024-03-02T04:11:46;52384.97;;;-145.69;71.10
1726;BME280;41776;48.260;8.928;2024-03-02T04:14:13;52396.84;;;-145.69;70.65
1726;BME280;41776;48.260;8.928;2024-03-02T04:16:39;52412.69;;;-145.69;70.66
1726;BME280;41776;48.260;8.928;2024-03-02T04:19:06;52396.84;;;-145.69;70.60
1726;BME280;41776;48.260;8.928;2024-03-02T04:21:33;52392.91;;;-145.69;71.19
1726;BME280;41776;48.260;8.928;2024-03-02T04:24:00;52373.09;;;-145.69;71.50
1726;BME280;41776;48.260;8.928;2024-03-02T04:26:26;52396.84;;;-145.69;71.08
1726;BME280;41776;48.260;8.928;2024-03-02T04:28:53;52367.16;;;-145.69;71.82
1726;BME280;41776;48.260;8.928;2024-03-02T04:31:19;52392.91;;;-145.69;71.50
1726;BME280;41776;48.260;8.928;2024-03-02T04:33:46;52369.13;;;-145.69;71.19
1726;BME280;41776;48.260;8.928;2024-03-02T04:36:12;52379.03;;;-145.69;71.83
1726;BME280;41776;48.260;8.928;2024-03-02T04:38:40;52365.16;;;-145.69;71.15
1726;BME280;41776;48.260;8.928;2024-03-02T04:41:07;52396.84;;;-145.69;70.43
1726;BME280;41776;48.260;8.928;2024-03-02T04:43:34;52386.97;;;-145.69;72.67
1726;BME280;41776;48.260;8.928;2024-03-02T04:46:01;52381.00;;;-145.69;71.79
1726;BME280;41776;48.260;8.928;2024-03-02T04:48:27;52390.91;;;-145.69;71.05
1726;BME280;41776;48.260;8.928;2024-03-02T04:50:54;52384.97;;;-145.69;70.99
1726;BME280;41776;48.260;8.928;2024-03-02T04:53:20;52381.00;;;-145.69;72.13
1726;BME280;41776;48.260;8.928;2024-03-02T04:55:48;52384.97;;;-145.69;72.49
1726;BME280;41776;48.260;8.928;2024-03-02T04:58:52;52438.44;;;-145.69;71.97
1726;BME280;41776;48.260;8.928;2024-03-02T05:01:19;52414.69;;;-145.69;71.84
1726;BME280;41776;48.260;8.928;2024-03-02T05:03:45;52394.88;;;-145.69;71.46
1726;BME280;41776;48.260;8.928;2024-03-02T05:06:11;52353.28;;;-145.69;71.77
1726;BME280;41776;48.260;8.928;2024-03-02T05:08:38;52388.94;;;-145.69;72.12
1726;BME280;41776;48.260;8.928;2024-03-02T05:11:06;52388.94;;;-145.69;71.63
1726;BME280;41776;48.260;8.928;2024-03-02T05:13:49;52361.22;;;-145.69;71.91
1726;BME280;41776;48.260;8.928;2024-03-02T05:16:16;52373.09;;;-145.69;70.74
1726;BME280;41776;48.260;8.928;2024-03-02T05:18:42;52379.03;;;-145.69;70.46
1726;BME280;41776;48.260;8.928;2024-03-02T05:21:09;52386.97;;;-145.69;70.53
1726;BME280;41776;48.260;8.928;2024-03-02T05:23:36;52365.16;;;-145.69;71.20
1726;BME280;41776;48.260;8.928;2024-03-02T05:26:03;52369.13;;;-145.69;71.73
1726;BME280;41776;48.260;8.928;2024-03-02T05:28:31;52369.13;;;-145.69;71.57
1726;BME280;41776;48.260;8.928;2024-03-02T05:30:57;52390.91;;;-145.69;71.98
1726;BME280;41776;48.260;8.928;2024-03-02T05:33:24;52377.06;;;-145.69;72.36
1726;BME280;41776;48.260;8.928;2024-03-02T05:35:50;52373.09;;;-145.69;71.95
1726;BME280;41776;48.260;8.928;2024-03-02T05:38:17;52369.13;;;-145.69;72.07
1726;BME280;41776;48.260;8.928;2024-03-02T05:40:43;52367.16;;;-145.69;72.31
1726;BME280;41776;48.260;8.928;2024-03-02T05:43:10;52386.97;;;-145.69;72.13
1726;BME280;41776;48.260;8.928;2024-03-02T05:45:38;52402.78;;;-145.69;72.35
1726;BME280;41776;48.260;8.928;2024-03-02T05:48:06;52373.09;;;-145.69;71.46
1726;BME280;41776;48.260;8.928;2024-03-02T05:50:32;52373.09;;;-145.69;71.79
1726;BME280;41776;48.260;8.928;2024-03-02T05:52:59;52369.13;;;-145.69;71.62
1726;BME280;41776;48.260;8.928;2024-03-02T05:55:25;52384.97;;;-145.69;70.98
1726;BME280;41776;48.260;8.928;2024-03-02T05:57:52;52400.81;;;-145.69;70.97
1726;BME280;41776;48.260;8.928;2024-03-02T06:00:38;52396.84;;;-145.69;70.75
1726;BME280;41776;48.260;8.928;2024-03-02T06:03:04;52408.75;;;-145.69;71.63
1726;BME280;41776;48.260;8.928;2024-03-02T06:05:31;52412.69;;;-145.69;72.37
1726;BME280;41776;48.260;8.928;2024-03-02T06:07:57;52392.91;;;-145.69;72.55
1726;BME280;41776;48.260;8.928;2024-03-02T06:10:24;52408.75;;;-145.69;72.58
1726;BME280;41776;48.260;8.928;2024-03-02T06:12:50;52400.81;;;-145.69;72.19
1726;BME280;41776;48.260;8.928;2024-03-02T06:15:17;52386.97;;;-145.69;71.88
1726;BME280;41776;48.260;8.928;2024-03-02T06:17:45;52396.84;;;-145.69;71.05
1726;BME280;41776;48.260;8.928;2024-03-02T06:20:11;52373.09;;;-145.69;71.28
1726;BME280;41776;48.260;8.928;2024-03-02T06:22:38;52390.91;;;-145.69;70.44
1726;BME280;41776;48.260;8.928;2024-03-02T06:25:05;52381.00;;;-145.69;70.85
1726;BME280;41776;48.260;8.928;2024-03-02T06:27:31;52379.03;;;-145.69;70.89
1726;BME280;41776;48.260;8.928;2024-03-02T06:29:58;52369.13;;;-145.69;70.00
1726;BME280;41776;48.260;8.928;2024-03-02T06:32:24;52384.97;;;-145.69;70.22
1726;BME280;41776;48.260;8.928;2024-03-02T06:34:52;52384.97;;;-145.69;70.55
1726;BME280;41776;48.260;8.928;2024-03-02T06:37:19;52377.06;;;-145.69;70.88
1726;BME280;41776;48.260;8.928;2024-03-02T06:39:45;52396.84;;;-145.69;70.99
1726;BME280;41776;48.260;8.928;2024-03-02T06:42:11;52390.91;;;-145.69;71.35
1726;BME280;41776;48.260;8.928;2024-03-02T06:44:38;52353.28;;;-145.69;71.37
1726;BME280;41776;48.260;8.928;2024-03-02T06:47:07;52414.69;;;-145.69;70.88
1726;BME280;41776;48.260;8.928;2024-03-02T06:49:33;52400.81;;;-145.69;70.76
1726;BME280;41776;48.260;8.928;2024-03-02T06:52:02;52375.06;;;-145.69;70.76
1726;BME280;41776;48.260;8.928;2024-03-02T06:54:28;52392.91;;;-145.69;71.17
1726;BME280;41776;48.260;8.928;2024-03-02T06:56:55;52373.09;;;-145.69;71.51
1726;BME280;41776;48.260;8.928;2024-03-02T06:59:21;52386.97;;;-145.69;71.35
1726;BME280;41776;48.260;8.928;2024-03-02T07:01:47;52384.97;;;-145.69;71.47
1726;BME280;41776;48.260;8.928;2024-03-02T07:04:14;52386.97;;;-145.69;71.61
1726;BME280;41776;48.260;8.928;2024-03-02T07:06:42;52361.22;;;-145.69;71.47
1726;BME280;41776;48.260;8.928;2024-03-02T07:09:10;52379.03;;;-145.69;71.52
1726;BME280;41776;48.260;8.928;2024-03-02T07:11:37;52388.94;;;-145.69;70.95
1726;BME280;41776;48.260;8.928;2024-03-02T07:14:03;52388.94;;;-145.69;70.82
1726;BME280;41776;48.260;8.928;2024-03-02T07:16:30;52396.84;;;-145.69;71.57
1726;BME280;41776;48.260;8.928;2024-03-02T07:18:58;52365.16;;;-145.69;71.62
1726;BME280;41776;48.260;8.928;2024-03-02T07:21:26;52400.81;;;-145.69;71.31
1726;BME280;41776;48.260;8.928;2024-03-02T07:23:53;52369.13;;;-145.69;71.46
1726;BME280;41776;48.260;8.928;2024-03-02T07:26:21;52369.13;;;-145.69;71.21
1726;BME280;41776;48.260;8.928;2024-03-02T07:28:48;52373.09;;;-145.69;70.84
1726;BME280;41776;48.260;8.928;2024-03-02T07:31:15;52361.22;;;-145.69;70.90
1726;BME280;41776;48.260;8.928;2024-03-02T07:33:43;52388.94;;;-145.69;71.18
1726;BME280;41776;48.260;8.928;2024-03-02T07:36:10;52365.16;;;-145.69;71.25
1726;BME280;41776;48.260;8.928;2024-03-02T07:38:37;52384.97;;;-145.69;71.43
1726;BME280;41776;48.260;8.928;2024-03-02T07:41:03;52353.28;;;-145.69;70.70
1726;BME280;41776;48.260;8.928;2024-03-02T07:43:32;52375.06;;;-145.69;70.41
1726;BME280;41776;48.260;8.928;2024-03-02T07:45:59;52400.81;;;-145.69;70.49
1726;BME280;41776;48.260;8.928;2024-03-02T07:48:26;52373.09;;;-145.69;69.82
1726;BME280;41776;48.260;8.928;2024-03-02T07:50:52;52398.84;;;-145.69;70.31
1726;BME280;41776;48.260;8.928;2024-03-02T07:53:19;52361.22;;;-145.69;69.73
1726;BME280;41776;48.260;8.928;2024-03-02T07:55:45;52377.06;;;-145.69;69.51
1726;BME280;41776;48.260;8.928;2024-03-02T07:58:12;52349.31;;;-145.69;69.88
1726;BME280;41776;48.260;8.928;2024-03-02T08:00:41;52365.16;;;-145.69;69.18
1726;BME280;41776;48.260;8.928;2024-03-02T08:03:07;52369.13;;;-145.69;68.98
1726;BME280;41776;48.260;8.928;2024-03-02T08:05:36;52384.97;;;-145.69;68.22
1726;BME280;41776;48.260;8.928;2024-03-02T08:08:04;52394.88;;;-145.69;68.91
1726;BME280;41776;48.260;8.928;2024-03-02T08:10:30;52420.63;;;-145.69;69.14
1726;BME280;41776;48.260;8.928;2024-03-02T08:12:56;52377.06;;;-145.69;68.46
1726;BME280;41776;48.260;8.928;2024-03-02T08:15:23;52345.38;;;-145.69;67.74
1726;BME280;41776;48.260;8.928;2024-03-02T08:17:51;52357.25;;;-145.69;67.35
1726;BME280;41776;48.260;8.928;2024-03-02T08:20:17;52367.16;;;-145.69;66.76
1726;BME280;41776;48.260;8.928;2024-03-02T08:22:44;52339.44;;;-145.69;66.26
1726;BME280;41776;48.260;8.928;2024-03-02T08:25:12;52345.38;;;-145.69;67.79
1726;BME280;41776;48.260;8.928;2024-03-02T08:27:39;52345.38;;;-145.69;67.18
1726;BME280;41776;48.260;8.928;2024-03-02T08:30:07;52347.34;;;-145.69;66.60
1726;BME280;41776;48.260;8.928;2024-03-02T08:32:35;52357.25;;;-145.69;66.18
1726;BME280;41776;48.260;8.928;2024-03-02T08:35:04;52321.59;;;-145.69;63.51
1726;BME280;41776;48.260;8.928;2024-03-02T08:37:30;52351.31;;;-145.69;63.37
1726;BME280;41776;48.260;8.928;2024-03-02T08:39:57;52355.28;;;-145.69;59.05
1726;BME280;41776;48.260;8.928;2024-03-02T08:42:23;52321.59;;;-145.69;58.03
1726;BME280;41776;48.260;8.928;2024-03-02T08:44:52;52345.38;;;-145.69;59.69
1726;BME280;41776;48.260;8.928;2024-03-02T08:47:18;52321.59;;;-145.69;58.58
1726;BME280;41776;48.260;8.928;2024-03-02T08:49:44;52353.28;;;-145.69;58.53
1726;BME280;41776;48.260;8.928;2024-03-02T08:52:12;52305.75;;;-145.69;57.78
1726;BME280;41776;48.260;8.928;2024-03-02T08:54:39;52325.56;;;-145.69;57.76
1726;BME280;41776;48.260;8.928;2024-03-02T08:57:05;52315.66;;;-145.69;56.63
1726;BME280;41776;48.260;8.928;2024-03-02T08:59:32;52258.22;;;-145.69;57.34
1726;BME280;41776;48.260;8.928;2024-03-02T09:01:59;52329.53;;;-145.69;57.23
1726;BME280;41776;48.260;8.928;2024-03-02T09:04:25;52305.75;;;-145.69;56.85
1726;BME280;41776;48.260;8.928;2024-03-02T09:06:52;52309.72;;;-145.69;55.56
1726;BME280;41776;48.260;8.928;2024-03-02T09:09:19;52301.81;;;-145.69;54.99
1726;BME280;41776;48.260;8.928;2024-03-02T09:11:46;52331.50;;;-145.69;54.58
1726;BME280;41776;48.260;8.928;2024-03-02T09:14:13;52287.94;;;-145.69;54.06
1726;BME280;41776;48.260;8.928;2024-03-02T09:16:40;52264.16;;;-145.69;53.02
1726;BME280;41776;48.260;8.928;2024-03-02T09:19:06;52301.81;;;-145.69;53.10
1726;BME280;41776;48.260;8.928;2024-03-02T09:21:33;52301.81;;;-145.69;53.76
1726;BME280;41776;48.260;8.928;2024-03-02T09:23:59;52309.72;;;-145.69;53.95
1726;BME280;41776;48.260;8.928;2024-03-02T09:26:29;52278.03;;;-145.69;54.23
1726;BME280;41776;48.260;8.928;2024-03-02T09:28:55;52317.66;;;-145.69;54.86
1726;BME280;41776;48.260;8.928;2024-03-02T09:31:21;52280.00;;;-145.69;54.22
1726;BME280;41776;48.260;8.928;2024-03-02T09:33:48;52297.84;;;-145.69;54.69
1726;BME280;41776;48.260;8.928;2024-03-02T09:36:17;52285.97;;;-145.69;54.33
1726;BME280;41776;48.260;8.928;2024-03-02T09:38:44;52282.00;;;-145.69;55.84
1726;BME280;41776;48.260;8.928;2024-03-02T09:41:11;52297.84;;;-145.69;54.25
1726;BME280;41776;48.260;8.928;2024-03-02T09:43:40;52234.47;;;-145.69;54.82
1726;BME280;41776;48.260;8.928;2024-03-02T09:46:06;52278.03;;;-145.69;53.76
1726;BME280;41776;48.260;8.928;2024-03-02T09:48:34;52254.28;;;-145.69;52.84
1726;BME280;41776;48.260;8.928;2024-03-02T09:51:01;52285.97;;;-145.69;51.72
1726;BME280;41776;48.260;8.928;2024-03-02T09:53:31;52276.06;;;-145.69;50.50
1726;BME280;41776;48.260;8.928;2024-03-02T09:56:01;52274.06;;;-145.69;50.82
1726;BME280;41776;48.260;8.928;2024-03-02T09:58:27;52289.91;;;-145.69;50.91
1726;BME280;41776;48.260;8.928;2024-03-02T10:00:55;52250.31;;;-145.69;50.02
1726;BME280;41776;48.260;8.928;2024-03-02T10:03:22;52266.16;;;-145.69;48.99
1726;BME280;41776;48.260;8.928;2024-03-02T10:05:49;52274.06;;;-145.69;48.79
1726;BME280;41776;48.260;8.928;2024-03-02T10:08:17;52266.16;;;-145.69;48.69
1726;BME280;41776;48.260;8.928;2024-03-02T10:10:43;52238.44;;;-145.69;45.82
1726;BME280;41776;48.260;8.928;2024-03-02T10:13:11;52274.06;;;-145.69;46.10
1726;BME280;41776;48.260;8.928;2024-03-02T10:15:39;52236.44;;;-145.69;43.74
1726;BME280;41776;48.260;8.928;2024-03-02T10:18:10;52258.22;;;-145.69;43.65
1726;BME280;41776;48.260;8.928;2024-03-02T10:20:39;52250.31;;;-145.69;43.25
1726;BME280;41776;48.260;8.928;2024-03-02T10:23:13;52256.25;;;-145.69;42.71
1726;BME280;41776;48.260;8.928;2024-03-02T10:25:40;52250.31;;;-145.69;43.11
1726;BME280;41776;48.260;8.928;2024-03-02T10:28:07;52258.22;;;-145.69;43.33
1726;BME280;41776;48.260;8.928;2024-03-02T10:30:34;52266.16;;;-145.69;42.49
1726;BME280;41776;48.260;8.928;2024-03-02T10:33:00;52250.31;;;-145.69;43.75
1726;BME280;41776;48.260;8.928;2024-03-02T10:35:29;52236.44;;;-145.69;43.34
1726;BME280;41776;48.260;8.928;2024-03-02T10:37:58;52222.59;;;-145.69;43.53
1726;BME280;41776;48.260;8.928;2024-03-02T10:40:26;52240.41;;;-145.69;43.54
1726;BME280;41776;48.260;8.928;2024-03-02T10:42:52;52240.41;;;-145.69;44.07
1726;BME280;41776;48.260;8.928;2024-03-02T10:45:20;52234.47;;;-145.69;43.81
1726;BME280;41776;48.260;8.928;2024-03-02T10:47:48;52254.28;;;-145.69;44.43
1726;BME280;41776;48.260;8.928;2024-03-02T10:50:14;52240.41;;;-145.69;43.39
1726;BME280;41776;48.260;8.928;2024-03-02T10:52:42;52242.38;;;-145.69;43.29
1726;BME280;41776;48.260;8.928;2024-03-02T10:55:09;52234.47;;;-145.69;43.32
1726;BME280;41776;48.260;8.928;2024-03-02T10:57:41;52242.38;;;-145.69;42.45
1726;BME280;41776;48.260;8.928;2024-03-02T11:00:12;52202.78;;;-145.69;41.58
1726;BME280;41776;48.260;8.928;2024-03-02T11:02:42;52210.72;;;-145.69;41.24
1726;BME280;41776;48.260;8.928;2024-03-02T11:05:23;52236.44;;;-145.69;41.83
1726;BME280;41776;48.260;8.928;2024-03-02T11:08:00;52214.66;;;-145.69;42.79
1726;BME280;41776;48.260;8.928;2024-03-02T11:10:34;52220.59;;;-145.69;42.03
1726;BME280;41776;48.260;8.928;2024-03-02T11:13:03;52206.75;;;-145.69;40.72
1726;BME280;41776;48.260;8.928;2024-03-02T11:15:33;52206.75;;;-145.69;41.62
1726;BME280;41776;48.260;8.928;2024-03-02T11:18:08;52206.75;;;-145.69;41.83
1726;BME280;41776;48.260;8.928;2024-03-02T11:20:42;52190.91;;;-145.69;41.36
1726;BME280;41776;48.260;8.928;2024-03-02T11:23:10;52196.84;;;-145.69;41.28
1726;BME280;41776;48.260;8.928;2024-03-02T11:25:37;52234.47;;;-145.69;41.06
1726;BME280;41776;48.260;8.928;2024-03-02T11:28:08;52218.63;;;-145.69;41.28
1726;BME280;41776;48.260;8.928;2024-03-02T11:30:54;52206.75;;;-145.69;40.91
1726;BME280;41776;48.260;8.928;2024-03-02T11:33:25;52228.53;;;-145.69;41.83
1726;BME280;41776;48.260;8.928;2024-03-02T11:35:52;52218.63;;;-145.69;42.00
1726;BME280;41776;48.260;8.928;2024-03-02T11:38:20;52179.03;;;-145.69;42.11
1726;BME280;41776;48.260;8.928;2024-03-02T11:40:47;52196.84;;;-145.69;42.33
1726;BME280;41776;48.260;8.928;2024-03-02T11:43:13;52206.75;;;-145.69;42.69
1726;BME280;41776;48.260;8.928;2024-03-02T11:45:42;52208.72;;;-145.69;43.02
1726;BME280;41776;48.260;8.928;2024-03-02T11:48:10;52202.78;;;-145.69;42.54
1726;BME280;41776;48.260;8.928;2024-03-02T11:50:40;52208.72;;;-145.69;42.18
1726;BME280;41776;48.260;8.928;2024-03-02T11:53:08;52218.63;;;-145.69;40.94
1726;BME280;41776;48.260;8.928;2024-03-02T11:55:37;52196.84;;;-145.69;41.42
1726;BME280;41776;48.260;8.928;2024-03-02T11:58:06;52226.53;;;-145.69;41.77
1726;BME280;41776;48.260;8.928;2024-03-02T12:00:33;52175.06;;;-145.69;41.72
1726;BME280;41776;48.260;8.928;2024-03-02T12:03:00;52188.91;;;-145.69;41.89
1726;BME280;41776;48.260;8.928;2024-03-02T12:05:26;52208.72;;;-145.69;41.56
1726;BME280;41776;48.260;8.928;2024-03-02T12:08:00;52188.91;;;-145.69;40.76
1726;BME280;41776;48.260;8.928;2024-03-02T12:10:27;52196.84;;;-145.69;42.25
1726;BME280;41776;48.260;8.928;2024-03-02T12:12:59;52163.19;;;-145.69;42.45
1726;BME280;41776;48.260;8.928;2024-03-02T12:15:27;52171.09;;;-145.69;42.70
1726;BME280;41776;48.260;8.928;2024-03-02T12:17:54;52177.03;;;-145.69;41.88
1726;BME280;41776;48.260;8.928;2024-03-02T12:20:21;52186.94;;;-145.69;40.80
1726;BME280;41776;48.260;8.928;2024-03-02T12:22:54;52198.81;;;-145.69;41.38
1726;BME280;41776;48.260;8.928;2024-03-02T12:25:22;52167.13;;;-145.69;40.76
1726;BME280;41776;48.260;8.928;2024-03-02T12:27:51;52210.72;;;-145.69;41.08
1726;BME280;41776;48.260;8.928;2024-03-02T12:30:19;52171.09;;;-145.69;40.01
1726;BME280;41776;48.260;8.928;2024-03-02T12:32:48;52184.97;;;-145.69;40.24
1726;BME280;41776;48.260;8.928;2024-03-02T12:35:15;52198.81;;;-145.69;39.04
1726;BME280;41776;48.260;8.928;2024-03-02T12:37:42;52190.91;;;-145.69;39.73
1726;BME280;41776;48.260;8.928;2024-03-02T12:40:10;52204.75;;;-145.69;41.62
1726;BME280;41776;48.260;8.928;2024-03-02T12:42:36;52198.81;;;-145.69;40.29
1726;BME280;41776;48.260;8.928;2024-03-02T12:45:04;52212.69;;;-145.69;39.06
1726;BME280;41776;48.260;8.928;2024-03-02T12:47:33;52179.03;;;-145.69;39.11
1726;BME280;41776;48.260;8.928;2024-03-02T12:49:59;52190.91;;;-145.69;40.47
1726;BME280;41776;48.260;8.928;2024-03-02T12:52:26;52204.75;;;-145.69;39.96
1726;BME280;41776;48.260;8.928;2024-03-02T12:54:55;52175.06;;;-145.69;40.93
1726;BME280;41776;48.260;8.928;2024-03-02T12:57:28;52210.72;;;-145.69;40.54